sensor_id;sensor_type;location;lat;lon;timestamp;pressure;altitude;pressure_sealevel;temperature;humidity
52343;BME280;38277;51.972;4.624;2022-09-25T00:03:25;101850.0;;;11.8;78.0
52343;BME280;38277;51.972;4.624;2022-09-25T00:07:52;101860.0;;;11.7;78.0
52343;BME280;38277;51.972;4.624;2022-09-25T00:12:36;101870.0;;;11.7;78.0
52343;BME280;38277;51.972;4.624;2022-09-25T00:16:50;101870.0;;;11.6;78.0
52343;BME280;38277;51.972;4.624;2022-09-25T00:21:18;101880.0;;;11.6;78.5
52343;BME280;38277;51.972;4.624;2022-09-25T00:25:51;101880.0;;;11.6;78.5
52343;BME280;38277;51.972;4.624;2022-09-25T00:30:39;101880.0;;;11.6;79.0
52343;BME280;38277;51.972;4.624;2022-09-25T00:35:05;101880.0;;;11.6;79.0
52343;BME280;38277;51.972;4.624;2022-09-25T00:39:41;101870.0;;;11.6;79.5
52343;BME280;38277;51.972;4.624;2022-09-25T00:48:44;101880.0;;;11.6;79.5
52343;BME280;38277;51.972;4.624;2022-09-25T00:53:11;101870.0;;;11.6;79.5
52343;BME280;38277;51.972;4.624;2022-09-25T00:57:19;101880.0;;;11.6;79.5
52343;BME280;38277;51.972;4.624;2022-09-25T01:06:16;101870.0;;;11.5;79.5
52343;BME280;38277;51.972;4.624;2022-09-25T01:11:10;101870.0;;;11.5;79.5
52343;BME280;38277;51.972;4.624;2022-09-25T01:15:35;101870.0;;;11.4;79.5
52343;BME280;38277;51.972;4.624;2022-09-25T01:20:28;101870.0;;;11.3;79.5
52343;BME280;38277;51.972;4.624;2022-09-25T01:25:24;101870.0;;;11.2;79.5
52343;BME280;38277;51.972;4.624;2022-09-25T01:29:55;101860.0;;;11.2;79.5
52343;BME280;38277;51.972;4.624;2022-09-25T01:33:44;101860.0;;;11.1;79.5
52343;BME280;38277;51.972;4.624;2022-09-25T01:42:26;101870.0;;;11.0;79.5
52343;BME280;38277;51.972;4.624;2022-09-25T01:47:13;101870.0;;;10.9;79.5
52343;BME280;38277;51.972;4.624;2022-09-25T01:51:30;101870.0;;;10.9;80.0
52343;BME280;38277;51.972;4.624;2022-09-25T01:56:01;101880.0;;;10.8;80.0
52343;BME280;38277;51.972;4.624;2022-09-25T02:00:27;101870.0;;;10.8;80.0
52343;BME280;38277;51.972;4.624;2022-09-25T02:05:14;101880.0;;;10.7;80.0
52343;BME280;38277;51.972;4.624;2022-09-25T02:09:46;101880.0;;;10.7;80.0
52343;BME280;38277;51.972;4.624;2022-09-25T02:13:54;101880.0;;;10.7;80.5
52343;BME280;38277;51.972;4.624;2022-09-25T02:18:32;101870.0;;;10.8;80.5
52343;BME280;38277;51.972;4.624;2022-09-25T02:22:51;101870.0;;;10.9;81.0
52343;BME280;38277;51.972;4.624;2022-09-25T02:31:50;101870.0;;;11.0;81.0
52343;BME280;38277;51.972;4.624;2022-09-25T02:36:22;101860.0;;;11.1;81.0
52343;BME280;38277;51.972;4.624;2022-09-25T02:41:08;101870.0;;;11.1;81.0
52343;BME280;38277;51.972;4.624;2022-09-25T02:46:24;101870.0;;;11.1;81.0
52343;BME280;38277;51.972;4.624;2022-09-25T02:54:46;101870.0;;;11.1;81.0
52343;BME280;38277;51.972;4.624;2022-09-25T02:58:58;101860.0;;;11.2;81.0
52343;BME280;38277;51.972;4.624;2022-09-25T03:03:15;101870.0;;;11.3;81.5
52343;BME280;38277;51.972;4.624;2022-09-25T03:12:36;101880.0;;;11.4;81.5
52343;BME280;38277;51.972;4.624;2022-09-25T03:17:10;101880.0;;;11.5;81.5
52343;BME280;38277;51.972;4.624;2022-09-25T03:21:40;101880.0;;;11.6;81.5
52343;BME280;38277;51.972;4.624;2022-09-25T03:30:32;101870.0;;;11.7;81.5
52343;BME280;38277;51.972;4.624;2022-09-25T03:34:49;101870.0;;;11.8;82.0
52343;BME280;38277;51.972;4.624;2022-09-25T03:39:15;101870.0;;;11.8;82.0
52343;BME280;38277;51.972;4.624;2022-09-25T03:44:13;101860.0;;;11.9;82.0
52343;BME280;38277;51.972;4.624;2022-09-25T03:48:31;101840.0;;;12.0;82.0
52343;BME280;38277;51.972;4.624;2022-09-25T03:52:44;101850.0;;;12.1;82.0
52343;BME280;38277;51.972;4.624;2022-09-25T03:57:24;101850.0;;;12.2;82.0
52343;BME280;38277;51.972;4.624;2022-09-25T04:01:52;101850.0;;;12.2;82.0
52343;BME280;38277;51.972;4.624;2022-09-25T04:06:40;101850.0;;;12.2;82.0
52343;BME280;38277;51.972;4.624;2022-09-25T04:11:09;101840.0;;;12.2;81.5
52343;BME280;38277;51.972;4.624;2022-09-25T04:15:34;101840.0;;;12.2;81.5
52343;BME280;38277;51.972;4.624;2022-09-25T04:20:03;101840.0;;;12.2;81.5
52343;BME280;38277;51.972;4.624;2022-09-25T04:24:37;101830.0;;;12.1;81.5
52343;BME280;38277;51.972;4.624;2022-09-25T04:37:51;101830.0;;;11.8;81.0
52343;BME280;38277;51.972;4.624;2022-09-25T04:42:39;101830.0;;;11.7;81.0
52343;BME280;38277;51.972;4.624;2022-09-25T04:47:07;101820.0;;;11.6;81.0
52343;BME280;38277;51.972;4.624;2022-09-25T04:51:38;101820.0;;;11.5;81.5
52343;BME280;38277;51.972;4.624;2022-09-25T04:55:47;101830.0;;;11.4;81.5
52343;BME280;38277;51.972;4.624;2022-09-25T05:00:29;101830.0;;;11.3;81.5
52343;BME280;38277;51.972;4.624;2022-09-25T05:04:59;101830.0;;;11.2;81.5
52343;BME280;38277;51.972;4.624;2022-09-25T05:13:48;101840.0;;;11.0;82.0
52343;BME280;38277;51.972;4.624;2022-09-25T05:18:24;101830.0;;;11.0;82.0
52343;BME280;38277;51.972;4.624;2022-09-25T05:23:05;101830.0;;;11.0;82.0
52343;BME280;38277;51.972;4.624;2022-09-25T05:27:28;101840.0;;;10.9;82.5
52343;BME280;38277;51.972;4.624;2022-09-25T05:31:51;101830.0;;;11.0;83.0
52343;BME280;38277;51.972;4.624;2022-09-25T05:36:22;101830.0;;;11.1;83.0
52343;BME280;38277;51.972;4.624;2022-09-25T05:40:45;101830.0;;;11.1;83.0
52343;BME280;38277;51.972;4.624;2022-09-25T05:45:13;101830.0;;;11.2;83.0
52343;BME280;38277;51.972;4.624;2022-09-25T05:49:59;101820.0;;;11.3;83.0
52343;BME280;38277;51.972;4.624;2022-09-25T05:54:13;101820.0;;;11.3;83.0
52343;BME280;38277;51.972;4.624;2022-09-25T05:58:58;101830.0;;;11.3;83.0
52343;BME280;38277;51.972;4.624;2022-09-25T06:03:16;101830.0;;;11.4;83.0
52343;BME280;38277;51.972;4.624;2022-09-25T06:08:07;101830.0;;;11.5;83.5
52343;BME280;38277;51.972;4.624;2022-09-25T06:17:00;101830.0;;;11.7;83.5
52343;BME280;38277;51.972;4.624;2022-09-25T06:21:29;101830.0;;;11.9;84.0
52343;BME280;38277;51.972;4.624;2022-09-25T06:26:08;101840.0;;;12.1;84.0
52343;BME280;38277;51.972;4.624;2022-09-25T06:30:38;101850.0;;;12.3;84.0
52343;BME280;38277;51.972;4.624;2022-09-25T06:34:51;101850.0;;;12.5;83.5
52343;BME280;38277;51.972;4.624;2022-09-25T06:39:37;101850.0;;;12.7;83.0
52343;BME280;38277;51.972;4.624;2022-09-25T06:44:05;101850.0;;;12.8;82.5
52343;BME280;38277;51.972;4.624;2022-09-25T06:52:59;101850.0;;;13.1;82.0
52343;BME280;38277;51.972;4.624;2022-09-25T06:57:41;101850.0;;;13.2;81.5
52343;BME280;38277;51.972;4.624;2022-09-25T07:02:08;101840.0;;;13.3;81.5
52343;BME280;38277;51.972;4.624;2022-09-25T07:06:25;101850.0;;;13.5;81.0
52343;BME280;38277;51.972;4.624;2022-09-25T07:11:01;101840.0;;;13.7;81.0
52343;BME280;38277;51.972;4.624;2022-09-25T07:15:20;101830.0;;;13.8;80.5
52343;BME280;38277;51.972;4.624;2022-09-25T07:20:13;101850.0;;;14.0;80.0
52343;BME280;38277;51.972;4.624;2022-09-25T07:24:14;101840.0;;;14.1;79.5
52343;BME280;38277;51.972;4.624;2022-09-25T07:29:16;101840.0;;;14.3;79.0
52343;BME280;38277;51.972;4.624;2022-09-25T07:33:19;101830.0;;;14.4;78.5
52343;BME280;38277;51.972;4.624;2022-09-25T07:38:11;101840.0;;;14.6;78.0
52343;BME280;38277;51.972;4.624;2022-09-25T07:42:30;101850.0;;;14.7;77.5
52343;BME280;38277;51.972;4.624;2022-09-25T07:46:58;101850.0;;;14.7;76.5
52343;BME280;38277;51.972;4.624;2022-09-25T07:51:23;101850.0;;;14.8;76.5
52343;BME280;38277;51.972;4.624;2022-09-25T07:55:46;101840.0;;;14.8;75.5
52343;BME280;38277;51.972;4.624;2022-09-25T08:00:22;101850.0;;;14.9;75.5
52343;BME280;38277;51.972;4.624;2022-09-25T08:04:55;101850.0;;;15.0;75.0
52343;BME280;38277;51.972;4.624;2022-09-25T08:09:15;101850.0;;;15.1;74.5
52343;BME280;38277;51.972;4.624;2022-09-25T08:13:49;101850.0;;;15.2;74.5
52343;BME280;38277;51.972;4.624;2022-09-25T08:22:46;101860.0;;;15.7;73.0
52343;BME280;38277;51.972;4.624;2022-09-25T08:27:36;101840.0;;;16.0;71.5
52343;BME280;38277;51.972;4.624;2022-09-25T08:32:06;101850.0;;;16.1;70.0
52343;BME280;38277;51.972;4.624;2022-09-25T08:36:18;101850.0;;;16.2;68.5
52343;BME280;38277;51.972;4.624;2022-09-25T08:40:54;101840.0;;;16.3;67.5
52343;BME280;38277;51.972;4.624;2022-09-25T08:45:36;101840.0;;;16.6;65.5
52343;BME280;38277;51.972;4.624;2022-09-25T08:50:09;101840.0;;;16.9;65.0
52343;BME280;38277;51.972;4.624;2022-09-25T08:54:33;101840.0;;;17.2;63.0
52343;BME280;38277;51.972;4.624;2022-09-25T08:59:03;101830.0;;;17.4;60.5
52343;BME280;38277;51.972;4.624;2022-09-25T09:03:45;101820.0;;;17.7;59.5
52343;BME280;38277;51.972;4.624;2022-09-25T09:08:17;101830.0;;;18.0;58.5
52343;BME280;38277;51.972;4.624;2022-09-25T09:12:27;101830.0;;;18.1;57.0
52343;BME280;38277;51.972;4.624;2022-09-25T09:16:45;101820.0;;;18.3;56.5
52343;BME280;38277;51.972;4.624;2022-09-25T09:21:35;101820.0;;;18.5;56.5
52343;BME280;38277;51.972;4.624;2022-09-25T09:26:00;101830.0;;;18.5;56.0
52343;BME280;38277;51.972;4.624;2022-09-25T09:30:46;101820.0;;;18.3;56.5
52343;BME280;38277;51.972;4.624;2022-09-25T09:35:56;101820.0;;;18.0;57.0
52343;BME280;38277;51.972;4.624;2022-09-25T09:40:22;101820.0;;;17.7;57.5
52343;BME280;38277;51.972;4.624;2022-09-25T09:44:55;101820.0;;;17.4;57.0
52343;BME280;38277;51.972;4.624;2022-09-25T09:48:52;101820.0;;;17.1;57.5
52343;BME280;38277;51.972;4.624;2022-09-25T09:53:09;101840.0;;;17.0;57.0
52343;BME280;38277;51.972;4.624;2022-09-25T09:57:22;101830.0;;;17.0;57.5
52343;BME280;38277;51.972;4.624;2022-09-25T10:02:03;101830.0;;;17.1;58.0
52343;BME280;38277;51.972;4.624;2022-09-25T10:06:21;101830.0;;;17.2;57.5
52343;BME280;38277;51.972;4.624;2022-09-25T10:11:12;101820.0;;;17.3;56.5
52343;BME280;38277;51.972;4.624;2022-09-25T10:20:13;101820.0;;;17.5;54.5
52343;BME280;38277;51.972;4.624;2022-09-25T10:24:56;101810.0;;;17.6;54.5
52343;BME280;38277;51.972;4.624;2022-09-25T10:33:41;101800.0;;;17.9;53.0
52343;BME280;38277;51.972;4.624;2022-09-25T10:38:17;101800.0;;;18.3;52.5
52343;BME280;38277;51.972;4.624;2022-09-25T10:42:39;101810.0;;;18.8;50.5
52343;BME280;38277;51.972;4.624;2022-09-25T10:46:54;101800.0;;;19.2;48.5
52343;BME280;38277;51.972;4.624;2022-09-25T10:56:10;101790.0;;;19.8;46.0
52343;BME280;38277;51.972;4.624;2022-09-25T11:00:50;101800.0;;;19.8;47.5
52343;BME280;38277;51.972;4.624;2022-09-25T11:04:56;101800.0;;;19.6;50.5
52343;BME280;38277;51.972;4.624;2022-09-25T11:09:17;101800.0;;;19.2;53.5
52343;BME280;38277;51.972;4.624;2022-09-25T11:13:46;101800.0;;;18.9;54.5
52343;BME280;38277;51.972;4.624;2022-09-25T11:18:38;101800.0;;;18.4;56.5
52343;BME280;38277;51.972;4.624;2022-09-25T11:22:54;101790.0;;;18.1;57.0
52343;BME280;38277;51.972;4.624;2022-09-25T11:27:33;101790.0;;;17.9;57.5
52343;BME280;38277;51.972;4.624;2022-09-25T11:31:57;101780.0;;;17.9;58.0
52343;BME280;38277;51.972;4.624;2022-09-25T11:36:43;101770.0;;;18.1;58.0
52343;BME280;38277;51.972;4.624;2022-09-25T11:41:38;101770.0;;;18.3;56.5
52343;BME280;38277;51.972;4.624;2022-09-25T11:45:33;101760.0;;;18.9;55.5
52343;BME280;38277;51.972;4.624;2022-09-25T11:49:51;101750.0;;;20.7;53.5
52343;BME280;38277;51.972;4.624;2022-09-25T12:00:06;101740.0;;;24.8;39.0
52343;BME280;38277;51.972;4.624;2022-09-25T12:04:29;101740.0;;;24.8;36.5
52343;BME280;38277;51.972;4.624;2022-09-25T12:09:55;101740.0;;;24.9;37.5
52343;BME280;38277;51.972;4.624;2022-09-25T12:13:54;101730.0;;;25.5;36.0
52343;BME280;38277;51.972;4.624;2022-09-25T12:18:14;101730.0;;;25.7;34.5
52343;BME280;38277;51.972;4.624;2022-09-25T12:22:36;101720.0;;;26.7;34.0
52343;BME280;38277;51.972;4.624;2022-09-25T12:26:41;101710.0;;;29.2;30.0
52343;BME280;38277;51.972;4.624;2022-09-25T12:35:44;101680.0;;;34.2;23.5
52343;BME280;38277;51.972;4.624;2022-09-25T12:39:39;101670.0;;;36.1;21.5
52343;BME280;38277;51.972;4.624;2022-09-25T12:43:51;101670.0;;;37.4;19.0
52343;BME280;38277;51.972;4.624;2022-09-25T12:48:24;101660.0;;;37.2;18.0
52343;BME280;38277;51.972;4.624;2022-09-25T12:53:01;101650.0;;;37.9;17.0
52343;BME280;38277;51.972;4.624;2022-09-25T12:57:25;101660.0;;;38.3;16.5
52343;BME280;38277;51.972;4.624;2022-09-25T13:02:15;101650.0;;;38.4;16.5
52343;BME280;38277;51.972;4.624;2022-09-25T13:11:01;101650.0;;;34.5;19.0
52343;BME280;38277;51.972;4.624;2022-09-25T13:15:29;101650.0;;;34.8;19.5
52343;BME280;38277;51.972;4.624;2022-09-25T13:33:19;101650.0;;;34.1;22.0
52343;BME280;38277;51.972;4.624;2022-09-25T13:38:16;101640.0;;;33.6;23.5
52343;BME280;38277;51.972;4.624;2022-09-25T13:42:21;101640.0;;;35.1;21.5
52343;BME280;38277;51.972;4.624;2022-09-25T13:46:45;101630.0;;;36.9;19.5
52343;BME280;38277;51.972;4.624;2022-09-25T13:51:36;101630.0;;;38.0;16.5
52343;BME280;38277;51.972;4.624;2022-09-25T13:56:13;101620.0;;;38.4;17.0
52343;BME280;38277;51.972;4.624;2022-09-25T14:00:51;101620.0;;;38.2;16.5
52343;BME280;38277;51.972;4.624;2022-09-25T14:05:03;101620.0;;;36.4;17.5
52343;BME280;38277;51.972;4.624;2022-09-25T14:09:24;101610.0;;;33.0;21.0
52343;BME280;38277;51.972;4.624;2022-09-25T14:14:17;101610.0;;;30.6;23.0
52343;BME280;38277;51.972;4.624;2022-09-25T14:18:43;101610.0;;;31.0;23.5
52343;BME280;38277;51.972;4.624;2022-09-25T14:23:11;101600.0;;;32.7;21.5
52343;BME280;38277;51.972;4.624;2022-09-25T14:27:37;101590.0;;;32.8;20.5
52343;BME280;38277;51.972;4.624;2022-09-25T14:37:35;101600.0;;;30.9;23.5
52343;BME280;38277;51.972;4.624;2022-09-25T14:42:25;101600.0;;;31.7;22.5
52343;BME280;38277;51.972;4.624;2022-09-25T14:46:22;101600.0;;;29.7;24.5
52343;BME280;38277;51.972;4.624;2022-09-25T14:49:45;101600.0;;;27.6;27.0
52343;BME280;38277;51.972;4.624;2022-09-25T14:54:30;101600.0;;;26.2;29.5
52343;BME280;38277;51.972;4.624;2022-09-25T14:59:11;101600.0;;;25.6;31.0
52343;BME280;38277;51.972;4.624;2022-09-25T15:03:16;101600.0;;;25.1;30.5
52343;BME280;38277;51.972;4.624;2022-09-25T15:12:35;101590.0;;;22.8;35.5
52343;BME280;38277;51.972;4.624;2022-09-25T15:16:45;101600.0;;;22.6;37.0
52343;BME280;38277;51.972;4.624;2022-09-25T15:21:33;101590.0;;;22.0;38.5
52343;BME280;38277;51.972;4.624;2022-09-25T15:25:54;101600.0;;;21.3;39.5
52343;BME280;38277;51.972;4.624;2022-09-25T15:30:15;101600.0;;;20.8;41.5
52343;BME280;38277;51.972;4.624;2022-09-25T15:35:15;101590.0;;;20.2;43.5
52343;BME280;38277;51.972;4.624;2022-09-25T15:39:39;101590.0;;;19.8;44.5
52343;BME280;38277;51.972;4.624;2022-09-25T15:48:22;101600.0;;;19.1;46.5
52343;BME280;38277;51.972;4.624;2022-09-25T15:52:47;101590.0;;;18.8;46.5
52343;BME280;38277;51.972;4.624;2022-09-25T15:57:34;101600.0;;;18.6;46.5
52343;BME280;38277;51.972;4.624;2022-09-25T16:01:47;101590.0;;;18.5;47.0
52343;BME280;38277;51.972;4.624;2022-09-25T16:06:35;101580.0;;;18.4;47.5
52343;BME280;38277;51.972;4.624;2022-09-25T16:11:16;101590.0;;;18.6;47.5
52343;BME280;38277;51.972;4.624;2022-09-25T16:15:51;101580.0;;;18.8;47.0
52343;BME280;38277;51.972;4.624;2022-09-25T16:24:23;101580.0;;;19.2;46.0
52343;BME280;38277;51.972;4.624;2022-09-25T16:29:03;101580.0;;;19.1;46.0
52343;BME280;38277;51.972;4.624;2022-09-25T16:33:41;101580.0;;;18.8;47.0
52343;BME280;38277;51.972;4.624;2022-09-25T16:37:59;101580.0;;;18.5;47.5
52343;BME280;38277;51.972;4.624;2022-09-25T16:42:31;101580.0;;;18.3;48.5
52343;BME280;38277;51.972;4.624;2022-09-25T16:47:14;101570.0;;;18.1;49.0
52343;BME280;38277;51.972;4.624;2022-09-25T16:51:35;101570.0;;;17.9;49.5
52343;BME280;38277;51.972;4.624;2022-09-25T17:00:34;101570.0;;;17.7;50.0
52343;BME280;38277;51.972;4.624;2022-09-25T17:05:14;101560.0;;;17.5;50.0
52343;BME280;38277;51.972;4.624;2022-09-25T17:09:41;101570.0;;;17.4;51.0
52343;BME280;38277;51.972;4.624;2022-09-25T17:13:55;101560.0;;;17.2;51.5
52343;BME280;38277;51.972;4.624;2022-09-25T17:18:33;101560.0;;;17.0;52.0
52343;BME280;38277;51.972;4.624;2022-09-25T17:22:49;101550.0;;;16.9;52.5
52343;BME280;38277;51.972;4.624;2022-09-25T17:31:56;101540.0;;;16.7;53.5
52343;BME280;38277;51.972;4.624;2022-09-25T17:36:16;101530.0;;;16.6;54.0
52343;BME280;38277;51.972;4.624;2022-09-25T17:41:13;101540.0;;;16.5;54.5
52343;BME280;38277;51.972;4.624;2022-09-25T17:45:42;101540.0;;;16.5;55.0
52343;BME280;38277;51.972;4.624;2022-09-25T17:49:58;101540.0;;;16.4;55.5
52343;BME280;38277;51.972;4.624;2022-09-25T17:58:44;101540.0;;;16.3;57.5
52343;BME280;38277;51.972;4.624;2022-09-25T18:03:14;101540.0;;;16.1;58.5
52343;BME280;38277;51.972;4.624;2022-09-25T18:08:11;101540.0;;;15.9;59.0
52343;BME280;38277;51.972;4.624;2022-09-25T18:12:17;101530.0;;;15.8;60.0
52343;BME280;38277;51.972;4.624;2022-09-25T18:16:48;101530.0;;;15.6;60.0
52343;BME280;38277;51.972;4.624;2022-09-25T18:21:37;101520.0;;;15.5;60.5
52343;BME280;38277;51.972;4.624;2022-09-25T18:25:50;101520.0;;;15.4;61.0
52343;BME280;38277;51.972;4.624;2022-09-25T18:30:25;101520.0;;;15.3;61.0
52343;BME280;38277;51.972;4.624;2022-09-25T18:34:43;101520.0;;;15.2;61.5
52343;BME280;38277;51.972;4.624;2022-09-25T18:39:34;101510.0;;;15.1;62.0
52343;BME280;38277;51.972;4.624;2022-09-25T18:43:44;101500.0;;;15.0;62.5
52343;BME280;38277;51.972;4.624;2022-09-25T18:48:34;101490.0;;;14.9;62.5
52343;BME280;38277;51.972;4.624;2022-09-25T18:52:58;101490.0;;;14.9;62.5
52343;BME280;38277;51.972;4.624;2022-09-25T18:57:15;101480.0;;;14.8;62.5
52343;BME280;38277;51.972;4.624;2022-09-25T19:02:16;101470.0;;;14.8;63.0
52343;BME280;38277;51.972;4.624;2022-09-25T19:06:25;101470.0;;;14.8;63.0
52343;BME280;38277;51.972;4.624;2022-09-25T19:11:10;101470.0;;;14.8;63.0
52343;BME280;38277;51.972;4.624;2022-09-25T19:15:36;101470.0;;;14.8;63.0
52343;BME280;38277;51.972;4.624;2022-09-25T19:19:52;101470.0;;;14.8;63.0
52343;BME280;38277;51.972;4.624;2022-09-25T19:24:42;101460.0;;;14.8;63.0
52343;BME280;38277;51.972;4.624;2022-09-25T19:28:42;101460.0;;;14.8;63.5
52343;BME280;38277;51.972;4.624;2022-09-25T19:33:36;101450.0;;;14.7;63.5
52343;BME280;38277;51.972;4.624;2022-09-25T19:37:42;101430.0;;;14.7;64.0
52343;BME280;38277;51.972;4.624;2022-09-25T19:42:22;101430.0;;;14.7;64.0
52343;BME280;38277;51.972;4.624;2022-09-25T19:46:49;101430.0;;;14.7;64.5
52343;BME280;38277;51.972;4.624;2022-09-25T19:51:42;101430.0;;;14.7;64.5
52343;BME280;38277;51.972;4.624;2022-09-25T19:55:53;101430.0;;;14.7;65.0
52343;BME280;38277;51.972;4.624;2022-09-25T20:00:27;101430.0;;;14.7;65.0
52343;BME280;38277;51.972;4.624;2022-09-25T20:04:54;101430.0;;;14.7;65.0
52343;BME280;38277;51.972;4.624;2022-09-25T20:09:20;101430.0;;;14.6;65.5
52343;BME280;38277;51.972;4.624;2022-09-25T20:18:38;101410.0;;;14.5;66.0
52343;BME280;38277;51.972;4.624;2022-09-25T20:22:45;101400.0;;;14.4;66.5
52343;BME280;38277;51.972;4.624;2022-09-25T20:27:13;101390.0;;;14.3;66.5
52343;BME280;38277;51.972;4.624;2022-09-25T20:32:00;101380.0;;;14.3;66.5
52343;BME280;38277;51.972;4.624;2022-09-25T20:36:30;101390.0;;;14.2;67.0
52343;BME280;38277;51.972;4.624;2022-09-25T20:40:47;101380.0;;;14.2;67.0
52343;BME280;38277;51.972;4.624;2022-09-25T20:45:40;101380.0;;;14.2;67.0
52343;BME280;38277;51.972;4.624;2022-09-25T20:50:06;101380.0;;;14.1;67.0
52343;BME280;38277;51.972;4.624;2022-09-25T20:54:54;101380.0;;;14.2;67.5
52343;BME280;38277;51.972;4.624;2022-09-25T20:58:52;101380.0;;;14.2;67.5
52343;BME280;38277;51.972;4.624;2022-09-25T21:03:42;101370.0;;;14.2;67.5
52343;BME280;38277;51.972;4.624;2022-09-25T21:07:44;101370.0;;;14.2;67.5
52343;BME280;38277;51.972;4.624;2022-09-25T21:12:37;101370.0;;;14.3;67.5
52343;BME280;38277;51.972;4.624;2022-09-25T21:17:23;101360.0;;;14.3;67.5
52343;BME280;38277;51.972;4.624;2022-09-25T21:21:32;101360.0;;;14.3;67.5
52343;BME280;38277;51.972;4.624;2022-09-25T21:26:09;101350.0;;;14.3;68.0
52343;BME280;38277;51.972;4.624;2022-09-25T21:30:12;101340.0;;;14.3;68.0
52343;BME280;38277;51.972;4.624;2022-09-25T21:35:15;101330.0;;;14.3;68.0
52343;BME280;38277;51.972;4.624;2022-09-25T21:39:41;101330.0;;;14.3;68.5
52343;BME280;38277;51.972;4.624;2022-09-25T21:44:24;101320.0;;;14.4;68.5
52343;BME280;38277;51.972;4.624;2022-09-25T21:48:20;101320.0;;;14.4;68.5
52343;BME280;38277;51.972;4.624;2022-09-25T21:53:09;101300.0;;;14.4;68.5
52343;BME280;38277;51.972;4.624;2022-09-25T21:57:22;101280.0;;;14.4;69.0
52343;BME280;38277;51.972;4.624;2022-09-25T22:01:45;101280.0;;;14.4;69.5
52343;BME280;38277;51.972;4.624;2022-09-25T22:06:33;101270.0;;;14.3;69.5
52343;BME280;38277;51.972;4.624;2022-09-25T22:11:21;101270.0;;;14.3;70.0
52343;BME280;38277;51.972;4.624;2022-09-25T22:15:57;101270.0;;;14.3;70.5
52343;BME280;38277;51.972;4.624;2022-09-25T22:19:45;101270.0;;;14.4;70.5
52343;BME280;38277;51.972;4.624;2022-09-25T22:24:20;101260.0;;;14.4;70.5
52343;BME280;38277;51.972;4.624;2022-09-25T22:28:50;101250.0;;;14.5;71.0
52343;BME280;38277;51.972;4.624;2022-09-25T22:33:40;101250.0;;;14.5;71.0
52343;BME280;38277;51.972;4.624;2022-09-25T22:38:04;101240.0;;;14.5;71.0
52343;BME280;38277;51.972;4.624;2022-09-25T22:42:32;101240.0;;;14.6;71.0
52343;BME280;38277;51.972;4.624;2022-09-25T22:46:52;101230.0;;;14.5;72.0
52343;BME280;38277;51.972;4.624;2022-09-25T22:51:34;101220.0;;;14.4;72.5
52343;BME280;38277;51.972;4.624;2022-09-25T23:00:12;101210.0;;;14.2;74.0
52343;BME280;38277;51.972;4.624;2022-09-25T23:04:59;101210.0;;;14.1;75.0
52343;BME280;38277;51.972;4.624;2022-09-25T23:09:16;101190.0;;;14.1;75.5
52343;BME280;38277;51.972;4.624;2022-09-25T23:14:03;101180.0;;;13.9;76.5
52343;BME280;38277;51.972;4.624;2022-09-25T23:18:20;101170.0;;;13.8;77.5
52343;BME280;38277;51.972;4.624;2022-09-25T23:22:49;101170.0;;;13.8;78.0
52343;BME280;38277;51.972;4.624;2022-09-25T23:27:15;101150.0;;;13.7;78.5
52343;BME280;38277;51.972;4.624;2022-09-25T23:36:40;101130.0;;;13.7;79.0
52343;BME280;38277;51.972;4.624;2022-09-25T23:40:54;101120.0;;;13.7;78.5
52343;BME280;38277;51.972;4.624;2022-09-25T23:45:33;101120.0;;;13.7;78.5
52343;BME280;38277;51.972;4.624;2022-09-25T23:50:05;101120.0;;;13.7;78.5
52343;BME280;38277;51.972;4.624;2022-09-25T23:54:31;101100.0;;;13.7;78.5
52343;BME280;38277;51.972;4.624;2022-09-25T23:58:54;101100.0;;;13.8;78.5
